Time;durP1;ratioP1;P1;durP2;ratioP2;P2;SDS_P1;SDS_P2;PMS_P1;PMS_P2;Temp;Humidity;BMP_temperature;BMP_pressure;BME280_temperature;BME280_humidity;BME280_pressure;Samples;Min_cycle;Max_cycle;Signal;HPM_P1;HPM_P2
2021/05/23 00:00:27;;;;;;;7.47;2.90;;;16.50;50.70;;;;;;5156512;27;20038;-73
2021/05/23 00:02:58;;;;;;;5.53;2.95;;;16.40;50.90;;;;;;5156669;27;20409;-73
2021/05/23 00:05:27;;;;;;;6.65;2.88;;;16.40;51.20;;;;;;5155865;27;20042;-73
2021/05/23 00:08:04;;;;;;;6.30;2.63;;;16.40;51.20;;;;;;5155930;27;20481;-73
2021/05/23 00:10:31;;;;;;;5.32;3.10;;;16.30;51.50;;;;;;5155846;27;20027;-75
2021/05/23 00:12:59;;;;;;;4.35;2.97;;;16.30;51.60;;;;;;5156029;27;20027;-73
2021/05/23 00:15:38;;;;;;;5.07;3.25;;;16.20;51.70;;;;;;5155719;27;20168;-73
2021/05/23 00:18:06;;;;;;;8.02;3.22;;;16.20;52.00;;;;;;5155482;27;20491;-73
2021/05/23 00:20:31;;;;;;;5.80;3.10;;;16.10;52.10;;;;;;5156059;27;20058;-73
2021/05/23 00:22:57;;;;;;;4.25;3.30;;;16.00;52.20;;;;;;5155439;27;20072;-74
2021/05/23 00:25:24;;;;;;;4.20;2.95;;;16.00;52.50;;;;;;5154482;27;20023;-73
2021/05/23 00:27:51;;;;;;;6.85;3.38;;;16.00;52.70;;;;;;5155641;27;20372;-73
2021/05/23 00:30:18;;;;;;;9.68;4.55;;;15.90;52.90;;;;;;5155468;27;20444;-73
2021/05/23 00:32:44;;;;;;;7.28;5.05;;;15.80;53.10;;;;;;5154147;27;20495;-73
2021/05/23 00:35:10;;;;;;;10.65;5.10;;;15.80;53.20;;;;;;5155514;27;20353;-73
2021/05/23 00:37:36;;;;;;;10.00;5.53;;;15.80;53.40;;;;;;5155409;27;20030;-73
2021/05/23 00:40:05;;;;;;;9.32;5.63;;;15.70;53.60;;;;;;5155417;27;20460;-73
2021/05/23 00:42:30;;;;;;;9.55;5.72;;;15.70;53.80;;;;;;5156164;27;20034;-72
2021/05/23 00:44:57;;;;;;;8.20;5.22;;;15.60;53.80;;;;;;5156029;27;20444;-73
2021/05/23 00:47:23;;;;;;;9.80;5.10;;;15.60;54.00;;;;;;5136734;27;20027;-73
2021/05/23 00:49:48;;;;;;;6.90;4.38;;;15.60;54.10;;;;;;5155514;27;20015;-73
2021/05/23 00:52:14;;;;;;;7.47;4.75;;;15.50;54.30;;;;;;5155516;27;20031;-73
2021/05/23 00:54:40;;;;;;;6.53;3.97;;;15.50;54.50;;;;;;5155285;27;20520;-73
2021/05/23 00:57:06;;;;;;;7.80;4.00;;;15.50;54.60;;;;;;5155177;27;20026;-73
2021/05/23 00:59:32;;;;;;;7.40;4.03;;;15.50;54.70;;;;;;5155151;27;20023;-74
2021/05/23 01:01:58;;;;;;;6.82;4.43;;;15.50;54.90;;;;;;5153796;27;20027;-73
2021/05/23 01:04:24;;;;;;;6.30;4.10;;;15.50;54.90;;;;;;5155115;27;20023;-73
2021/05/23 01:06:50;;;;;;;6.45;4.13;;;15.50;55.00;;;;;;5155130;27;20368;-73
2021/05/23 01:09:16;;;;;;;6.75;4.00;;;15.50;55.10;;;;;;5154882;27;20041;-74
2021/05/23 01:11:42;;;;;;;11.45;5.22;;;15.40;55.20;;;;;;5136736;27;20026;-73
2021/05/23 01:14:44;;;;;;;9.00;4.40;;;15.40;55.40;;;;;;5136474;27;20452;-72
2021/05/23 01:17:12;;;;;;;7.47;4.50;;;15.40;55.60;;;;;;5154847;27;20075;-74
2021/05/23 01:20:09;;;;;;;8.57;4.75;;;15.40;55.50;;;;;;5155450;27;20360;-73
2021/05/23 01:22:37;;;;;;;7.13;4.00;;;15.40;55.70;;;;;;5155502;27;20025;-73
2021/05/23 01:25:19;;;;;;;7.97;4.32;;;15.40;55.60;;;;;;5137258;27;20018;-73
2021/05/23 01:27:51;;;;;;;5.22;4.13;;;15.40;55.70;;;;;;5154969;27;20022;-74
2021/05/23 01:30:25;;;;;;;7.18;5.18;;;15.40;55.80;;;;;;5154950;27;20027;-73
2021/05/23 01:32:56;;;;;;;6.07;5.47;;;15.50;55.80;;;;;;5154801;27;20031;-73
2021/05/23 01:35:29;;;;;;;8.80;6.57;;;15.50;55.70;;;;;;5154921;27;20031;-73
2021/05/23 01:37:59;;;;;;;17.25;10.70;;;15.50;55.70;;;;;;5158797;27;20014;-73
2021/05/23 01:40:30;;;;;;;13.43;8.55;;;15.60;55.70;;;;;;5159060;27;20102;-73
2021/05/23 01:42:56;;;;;;;7.22;5.38;;;15.60;55.60;;;;;;5159539;27;20042;-73
2021/05/23 01:45:23;;;;;;;5.55;3.92;;;15.60;55.60;;;;;;5158749;27;20023;-73
2021/05/23 01:47:49;;;;;;;7.75;4.15;;;15.60;55.60;;;;;;5158660;27;20026;-73
2021/05/23 01:50:15;;;;;;;6.35;4.43;;;15.60;55.50;;;;;;5158925;27;20026;-74
2021/05/23 01:52:55;;;;;;;6.20;4.70;;;15.70;55.60;;;;;;5158542;27;20114;-73
2021/05/23 01:55:22;;;;;;;5.28;3.65;;;15.70;55.70;;;;;;5158491;27;20413;-74
2021/05/23 01:57:49;;;;;;;4.43;3.45;;;15.70;55.60;;;;;;5159274;27;20110;-74
2021/05/23 02:00:18;;;;;;;4.40;3.25;;;15.80;55.70;;;;;;5158406;27;20030;-74
2021/05/23 02:02:44;;;;;;;3.88;3.00;;;15.80;55.70;;;;;;5158580;27;20498;-73
2021/05/23 02:05:11;;;;;;;7.53;3.63;;;15.80;55.60;;;;;;5157901;27;20105;-73
2021/05/23 02:07:37;;;;;;;4.30;2.95;;;15.90;55.70;;;;;;5139639;27;20027;-73
2021/05/23 02:10:09;;;;;;;4.18;3.20;;;15.90;55.60;;;;;;5158251;27;20070;-73
2021/05/23 02:12:35;;;;;;;6.25;3.08;;;16.00;55.60;;;;;;5158321;27;20027;-73
2021/05/23 02:15:03;;;;;;;4.18;3.30;;;16.00;55.50;;;;;;5158030;27;20368;-74
2021/05/23 02:17:29;;;;;;;8.68;3.03;;;16.10;55.60;;;;;;5157717;27;20030;-74
2021/05/23 02:19:54;;;;;;;3.13;2.70;;;16.10;55.60;;;;;;5157952;27;20019;-74
2021/05/23 02:22:20;;;;;;;4.95;3.30;;;16.20;55.50;;;;;;5158250;27;20350;-74
2021/05/23 02:24:46;;;;;;;4.68;3.33;;;16.20;55.60;;;;;;5157927;27;20023;-73
2021/05/23 02:27:12;;;;;;;6.15;3.50;;;16.30;55.60;;;;;;5158409;27;20521;-74
2021/05/23 02:29:38;;;;;;;8.00;4.45;;;16.30;55.50;;;;;;5158404;27;20018;-74
2021/05/23 02:32:08;;;;;;;8.20;4.20;;;16.30;55.50;;;;;;5157408;27;20468;-74
2021/05/23 02:34:44;;;;;;;6.68;3.92;;;16.40;55.60;;;;;;5157482;27;20472;-73
2021/05/23 02:37:10;;;;;;;6.78;3.80;;;16.40;55.60;;;;;;5157757;27;20361;-74
2021/05/23 02:39:35;;;;;;;4.57;3.00;;;16.40;55.60;;;;;;5139886;27;20018;-74
2021/05/23 02:42:01;;;;;;;6.43;3.10;;;16.40;55.70;;;;;;5157524;27;20057;-73
2021/05/23 02:44:27;;;;;;;4.57;3.05;;;16.40;55.80;;;;;;5139309;27;20023;-73
2021/05/23 02:46:52;;;;;;;4.20;3.20;;;16.40;55.90;;;;;;5157226;27;20441;-74
2021/05/23 02:49:18;;;;;;;6.72;4.10;;;16.40;55.90;;;;;;5156849;27;20448;-73
2021/05/23 02:51:44;;;;;;;4.60;3.42;;;16.50;56.00;;;;;;5157362;27;20043;-73
2021/05/23 02:54:09;;;;;;;5.18;3.70;;;16.50;56.10;;;;;;5157613;27;20372;-74
2021/05/23 02:56:35;;;;;;;6.45;3.60;;;16.50;56.20;;;;;;5157013;27;20062;-74
2021/05/23 02:59:02;;;;;;;4.32;3.40;;;16.50;56.30;;;;;;5138749;27;20019;-74
2021/05/23 03:01:28;;;;;;;4.38;3.15;;;16.50;56.40;;;;;;5157217;27;20376;-73
2021/05/23 03:03:54;;;;;;;5.80;3.10;;;16.50;56.60;;;;;;5157437;27;20026;-74
2021/05/23 03:06:20;;;;;;;4.20;3.08;;;16.40;56.70;;;;;;5156974;27;20023;-73
2021/05/23 03:08:46;;;;;;;6.38;3.65;;;16.40;57.00;;;;;;5157057;27;20030;-73
2021/05/23 03:11:12;;;;;;;7.18;3.67;;;16.40;57.10;;;;;;5157771;27;20080;-73
2021/05/23 03:13:38;;;;;;;7.22;3.70;;;16.40;57.30;;;;;;5139144;27;20364;-73
2021/05/23 03:16:04;;;;;;;4.00;3.08;;;16.30;57.40;;;;;;5157770;27;20027;-74
2021/05/23 03:18:30;;;;;;;4.97;3.22;;;16.30;57.50;;;;;;5156612;27;20483;-74
2021/05/23 03:20:55;;;;;;;7.00;3.17;;;16.30;57.70;;;;;;5138226;27;20027;-73
2021/05/23 03:23:21;;;;;;;5.15;3.42;;;16.30;58.00;;;;;;5156705;27;20023;-73
2021/05/23 03:25:47;;;;;;;5.57;3.25;;;16.20;58.20;;;;;;5156445;27;20133;-73
2021/05/23 03:28:12;;;;;;;3.63;2.80;;;16.20;58.40;;;;;;5155746;27;20027;-74
2021/05/23 03:30:41;;;;;;;4.15;3.05;;;16.20;58.80;;;;;;5157118;27;20037;-73
2021/05/23 03:33:08;;;;;;;5.38;3.97;;;16.20;59.10;;;;;;5156289;27;20532;-73
2021/05/23 03:35:35;;;;;;;6.38;3.47;;;16.10;59.30;;;;;;5156933;27;20023;-73
2021/05/23 03:38:01;;;;;;;4.93;3.42;;;16.10;59.50;;;;;;5138085;27;20476;-73
2021/05/23 03:40:29;;;;;;;6.53;3.90;;;16.10;59.70;;;;;;5138491;27;20031;-74
2021/05/23 03:42:55;;;;;;;5.88;3.30;;;16.20;59.90;;;;;;5157008;27;20022;-73
2021/05/23 03:45:23;;;;;;;4.40;2.95;;;16.20;60.00;;;;;;5156180;27;20353;-73
2021/05/23 03:47:49;;;;;;;4.60;3.45;;;16.20;60.30;;;;;;5156263;27;20019;-73
2021/05/23 03:50:19;;;;;;;5.07;3.00;;;16.20;60.40;;;;;;5156213;27;20021;-73
2021/05/23 03:52:45;;;;;;;7.18;2.90;;;16.20;60.70;;;;;;5156097;27;20072;-73
2021/05/23 03:55:11;;;;;;;6.18;3.22;;;16.10;60.80;;;;;;5156121;27;20022;-73
2021/05/23 03:57:37;;;;;;;8.82;3.45;;;16.20;61.00;;;;;;5156058;27;20034;-74
2021/05/23 04:00:05;;;;;;;4.50;3.53;;;16.20;61.10;;;;;;5155906;27;20079;-73
2021/05/23 04:02:31;;;;;;;7.65;3.90;;;16.20;61.20;;;;;;5156610;27;20038;-73
2021/05/23 04:04:57;;;;;;;5.68;3.80;;;16.20;61.60;;;;;;5156296;27;20023;-73
2021/05/23 04:07:25;;;;;;;5.68;4.13;;;16.20;61.90;;;;;;5155033;27;20066;-74
2021/05/23 04:09:52;;;;;;;3.17;2.85;;;16.20;62.20;;;;;;5137272;27;20035;-74
2021/05/23 04:12:41;;;;;;;6.00;3.10;;;16.20;62.30;;;;;;5156261;27;20043;-74
2021/05/23 04:15:08;;;;;;;5.35;2.95;;;16.30;62.50;;;;;;5156071;27;20037;-74
2021/05/23 04:17:34;;;;;;;6.18;3.10;;;16.30;62.60;;;;;;5155760;27;20353;-74
2021/05/23 04:20:00;;;;;;;4.95;3.00;;;16.30;62.70;;;;;;5155723;27;20108;-73
2021/05/23 04:22:26;;;;;;;4.90;2.97;;;16.40;63.40;;;;;;5155272;27;20050;-74
2021/05/23 04:24:52;;;;;;;6.60;3.92;;;16.50;62.70;;;;;;5155486;27;20151;-74
2021/05/23 04:27:18;;;;;;;6.22;2.95;;;16.60;62.70;;;;;;5155528;27;20464;-74
2021/05/23 04:29:45;;;;;;;5.20;3.00;;;16.60;62.50;;;;;;5155628;27;20038;-73
2021/05/23 04:32:11;;;;;;;5.63;3.45;;;16.70;62.50;;;;;;5155356;27;20034;-74
2021/05/23 04:34:37;;;;;;;4.03;3.13;;;16.80;62.40;;;;;;5155523;27;20038;-73
2021/05/23 04:37:04;;;;;;;4.50;2.97;;;16.80;62.20;;;;;;5155529;27;20022;-74
2021/05/23 04:39:30;;;;;;;10.75;3.15;;;17.00;62.20;;;;;;5155193;27;20041;-73
2021/05/23 04:41:56;;;;;;;6.60;3.78;;;17.10;62.30;;;;;;5155703;27;20037;-73
2021/05/23 04:44:21;;;;;;;4.45;2.90;;;17.20;62.20;;;;;;5155151;27;20416;-73
2021/05/23 04:46:47;;;;;;;6.10;3.10;;;17.30;62.00;;;;;;5155274;27;20030;-73
2021/05/23 04:49:13;;;;;;;4.90;3.20;;;17.50;61.90;;;;;;5155276;27;20259;-73
2021/05/23 04:51:39;;;;;;;7.00;3.22;;;17.60;61.70;;;;;;5136767;27;20077;-73
2021/05/23 04:54:05;;;;;;;3.97;2.88;;;17.70;61.40;;;;;;5136586;27;20018;-73
2021/05/23 04:56:30;;;;;;;5.78;3.10;;;17.90;61.10;;;;;;5155116;27;20034;-73
2021/05/23 04:58:56;;;;;;;3.70;3.00;;;17.90;61.10;;;;;;5155467;27;20027;-74
2021/05/23 05:01:22;;;;;;;6.43;3.20;;;18.00;60.80;;;;;;5136398;27;20035;-73
2021/05/23 05:03:48;;;;;;;5.72;3.42;;;18.10;60.60;;;;;;5155132;27;20106;-74
2021/05/23 05:06:13;;;;;;;5.18;3.22;;;18.20;60.50;;;;;;5155090;27;20105;-75
2021/05/23 05:08:39;;;;;;;5.88;3.42;;;18.20;60.50;;;;;;5154761;27;20050;-74
2021/05/23 05:11:05;;;;;;;4.60;3.53;;;18.30;60.50;;;;;;5155878;27;20030;-73
2021/05/23 05:13:30;;;;;;;5.72;3.90;;;18.30;60.40;;;;;;5159199;27;20030;-75
2021/05/23 05:15:56;;;;;;;8.65;3.88;;;18.40;60.50;;;;;;5159437;27;20029;-76
2021/05/23 05:18:22;;;;;;;5.10;3.55;;;18.30;60.50;;;;;;5159918;27;20096;-75
2021/05/23 05:20:48;;;;;;;5.40;3.90;;;18.40;60.70;;;;;;5159722;27;20468;-75
2021/05/23 05:23:13;;;;;;;5.53;3.40;;;18.40;60.80;;;;;;5159231;27;20023;-74
2021/05/23 05:25:39;;;;;;;5.43;3.10;;;18.50;60.70;;;;;;5159137;27;20110;-75
2021/05/23 05:28:05;;;;;;;4.43;3.03;;;18.50;61.10;;;;;;5140527;27;20030;-75
2021/05/23 05:30:31;;;;;;;4.53;2.97;;;18.60;60.30;;;;;;5159058;27;20034;-75
2021/05/23 05:32:57;;;;;;;5.45;3.10;;;18.70;60.00;;;;;;5158699;27;20035;-75
2021/05/23 05:35:22;;;;;;;3.72;3.00;;;18.80;59.90;;;;;;5159070;27;20019;-74
2021/05/23 05:37:48;;;;;;;5.30;3.20;;;18.90;59.70;;;;;;5159128;27;20054;-75
2021/05/23 05:40:14;;;;;;;4.28;3.00;;;19.00;59.60;;;;;;5158795;27;20425;-74
2021/05/23 05:42:41;;;;;;;4.90;3.28;;;19.10;59.60;;;;;;5158443;27;20551;-74
2021/05/23 05:45:07;;;;;;;4.78;3.70;;;19.20;59.40;;;;;;5140823;27;20448;-74
2021/05/23 05:47:33;;;;;;;6.38;3.42;;;19.40;59.30;;;;;;5158675;27;20058;-75
2021/05/23 05:49:59;;;;;;;5.22;3.08;;;19.60;59.70;;;;;;5158949;27;20528;-75
2021/05/23 05:52:25;;;;;;;4.15;2.88;;;19.80;58.70;;;;;;5159178;27;20054;-75
2021/05/23 05:54:51;;;;;;;4.43;3.05;;;19.90;58.30;;;;;;5158789;27;20124;-74
2021/05/23 05:57:17;;;;;;;4.38;3.28;;;20.00;58.10;;;;;;5159267;27;20023;-74
2021/05/23 05:59:42;;;;;;;8.38;3.15;;;20.10;57.80;;;;;;5158375;27;20031;-74
2021/05/23 06:02:08;;;;;;;5.80;2.80;;;20.20;57.60;;;;;;5158301;27;20451;-75
2021/05/23 06:04:34;;;;;;;4.63;2.70;;;20.30;57.30;;;;;;5158646;27;20031;-76
2021/05/23 06:07:00;;;;;;;4.68;3.00;;;20.30;57.10;;;;;;5158913;27;20378;-74
2021/05/23 06:09:25;;;;;;;5.53;2.70;;;20.40;56.90;;;;;;5158216;27;20035;-75
2021/05/23 06:11:51;;;;;;;4.45;2.80;;;20.50;57.00;;;;;;5139690;27;20061;-73
2021/05/23 06:14:17;;;;;;;4.50;2.83;;;20.70;56.70;;;;;;5158063;27;20037;-75
2021/05/23 06:16:43;;;;;;;3.70;2.85;;;21.00;56.30;;;;;;5157910;27;20019;-75
2021/05/23 06:19:09;;;;;;;5.80;2.80;;;21.20;55.70;;;;;;5158095;27;20046;-75
2021/05/23 06:21:34;;;;;;;4.70;2.67;;;21.30;55.20;;;;;;5157594;27;20429;-74
2021/05/23 06:24:00;;;;;;;6.75;2.90;;;21.50;55.10;;;;;;5156702;27;20018;-75
2021/05/23 06:26:26;;;;;;;4.22;3.03;;;21.60;55.00;;;;;;5157703;27;20029;-75
2021/05/23 06:28:53;;;;;;;3.72;3.17;;;21.70;54.80;;;;;;5158010;27;20027;-72
2021/05/23 06:31:20;;;;;;;4.43;2.83;;;21.90;54.40;;;;;;5156907;27;20031;-74
2021/05/23 06:33:46;;;;;;;5.95;2.72;;;22.20;54.30;;;;;;5157654;27;20019;-76
2021/05/23 06:36:11;;;;;;;9.25;2.80;;;22.50;53.90;;;;;;5158028;27;20384;-74
2021/05/23 06:38:37;;;;;;;4.55;3.40;;;22.70;53.50;;;;;;5158107;27;20019;-74
2021/05/23 06:41:03;;;;;;;5.82;3.28;;;22.70;53.20;;;;;;5157756;27;20027;-75
2021/05/23 06:43:29;;;;;;;6.45;3.78;;;22.80;53.30;;;;;;5158511;27;20357;-75
2021/05/23 06:45:55;;;;;;;3.60;3.10;;;22.80;53.30;;;;;;5157365;27;20468;-74
2021/05/23 06:48:21;;;;;;;3.78;3.30;;;22.80;53.20;;;;;;5158302;27;20029;-76
2021/05/23 06:50:48;;;;;;;5.93;3.35;;;22.80;53.00;;;;;;5157770;27;20048;-74
2021/05/23 06:53:14;;;;;;;6.88;3.60;;;22.80;52.80;;;;;;5157004;27;20034;-75
2021/05/23 06:55:40;;;;;;;4.90;3.10;;;22.90;52.60;;;;;;5157133;27;20099;-74
2021/05/23 06:58:05;;;;;;;5.50;3.20;;;23.00;52.60;;;;;;5157269;27;20097;-73
2021/05/23 07:00:31;;;;;;;5.50;2.88;;;23.10;52.40;;;;;;5157300;27;20019;-73
2021/05/23 07:02:57;;;;;;;4.38;2.88;;;23.20;52.30;;;;;;5157195;27;20034;-76
2021/05/23 07:05:23;;;;;;;4.43;3.00;;;23.20;52.10;;;;;;5156883;27;20091;-75
2021/05/23 07:07:48;;;;;;;4.35;2.80;;;23.10;51.80;;;;;;5155768;27;20023;-74
2021/05/23 07:10:15;;;;;;;8.25;2.90;;;23.10;51.80;;;;;;5156870;27;20029;-75
2021/05/23 07:12:40;;;;;;;3.72;3.25;;;23.10;52.00;;;;;;5156852;27;20081;-75
2021/05/23 07:15:10;;;;;;;3.92;3.13;;;23.10;52.30;;;;;;5156819;27;20031;-74
2021/05/23 07:17:36;;;;;;;6.32;3.15;;;23.10;52.50;;;;;;5156524;27;20049;-74
2021/05/23 07:20:03;;;;;;;5.32;3.20;;;23.10;52.60;;;;;;5156382;27;20019;-74
2021/05/23 07:22:29;;;;;;;4.45;3.28;;;23.30;52.60;;;;;;5138152;27;20030;-74
2021/05/23 07:24:54;;;;;;;3.30;3.00;;;23.40;52.40;;;;;;5156519;27;20027;-74
2021/05/23 07:27:20;;;;;;;5.10;2.97;;;23.60;52.30;;;;;;5156999;27;20054;-74
2021/05/23 07:29:46;;;;;;;6.53;3.20;;;23.90;52.30;;;;;;5137973;27;20117;-74
2021/05/23 07:32:11;;;;;;;5.30;3.53;;;24.30;51.90;;;;;;5156568;27;20077;-74
2021/05/23 07:34:37;;;;;;;4.78;3.38;;;24.70;51.60;;;;;;5155977;27;20071;-74
2021/05/23 07:37:03;;;;;;;5.43;4.20;;;25.00;50.80;;;;;;5156520;27;20399;-74
2021/05/23 07:39:29;;;;;;;3.60;3.30;;;25.20;50.40;;;;;;5156093;27;20030;-74
2021/05/23 07:41:54;;;;;;;6.97;3.90;;;25.40;50.20;;;;;;5156201;27;20102;-75
2021/05/23 07:44:20;;;;;;;4.20;3.40;;;25.50;50.00;;;;;;5157282;27;20471;-75
2021/05/23 07:46:49;;;;;;;5.10;3.00;;;25.60;49.90;;;;;;5156433;27;20019;-74
2021/05/23 07:49:16;;;;;;;4.00;3.13;;;25.60;49.70;;;;;;5138270;27;20030;-74
2021/05/23 07:51:42;;;;;;;4.45;3.75;;;25.70;49.40;;;;;;5156073;27;20034;-74
2021/05/23 07:54:08;;;;;;;6.20;3.33;;;25.70;49.30;;;;;;5156492;27;20076;-75
2021/05/23 07:56:33;;;;;;;5.07;3.05;;;25.70;49.30;;;;;;5156278;27;20492;-75
2021/05/23 07:58:59;;;;;;;4.97;3.03;;;25.80;49.30;;;;;;5155841;27;20046;-74
2021/05/23 08:01:25;;;;;;;4.30;2.83;;;25.90;48.90;;;;;;5156129;27;20067;-74
2021/05/23 08:03:51;;;;;;;4.47;3.33;;;26.00;48.80;;;;;;5137516;27;20357;-74
2021/05/23 08:06:17;;;;;;;4.00;2.92;;;25.90;48.70;;;;;;5156008;27;20018;-74
2021/05/23 08:08:44;;;;;;;6.10;3.33;;;25.90;48.50;;;;;;5155748;27;20019;-74
2021/05/23 08:11:09;;;;;;;3.85;2.83;;;26.10;48.70;;;;;;5155881;27;20022;-74
2021/05/23 08:13:35;;;;;;;3.10;2.80;;;26.30;48.70;;;;;;5137263;27;20026;-74
2021/05/23 08:16:01;;;;;;;2.83;2.63;;;26.50;48.30;;;;;;5155858;27;20023;-74
2021/05/23 08:18:29;;;;;;;5.28;3.25;;;26.30;47.90;;;;;;5137109;27;20039;-74
2021/05/23 08:21:02;;;;;;;4.65;2.78;;;26.20;48.20;;;;;;5155635;27;20023;-74
2021/05/23 08:23:29;;;;;;;5.07;3.03;;;26.00;49.30;;;;;;5155293;27;20517;-74
2021/05/23 08:25:56;;;;;;;3.38;2.83;;;26.00;49.10;;;;;;5155425;27;20033;-74
2021/05/23 08:28:24;;;;;;;4.57;2.80;;;26.20;49.10;;;;;;5155330;27;20509;-76
2021/05/23 08:30:50;;;;;;;6.03;2.65;;;26.50;49.00;;;;;;5155490;27;20034;-74
2021/05/23 08:33:16;;;;;;;2.78;2.50;;;26.70;48.30;;;;;;5155320;27;20469;-74
2021/05/23 08:35:42;;;;;;;7.20;3.00;;;26.90;48.00;;;;;;5155554;27;20030;-74
2021/05/23 08:38:08;;;;;;;2.80;2.50;;;26.70;47.90;;;;;;5155483;27;20026;-74
2021/05/23 08:40:35;;;;;;;5.65;2.67;;;26.50;48.20;;;;;;5155503;27;20042;-74
2021/05/23 08:43:08;;;;;;;6.22;2.45;;;26.70;48.20;;;;;;5155895;27;20029;-74
2021/05/23 08:45:35;;;;;;;5.00;2.63;;;27.20;47.90;;;;;;5136025;27;20022;-74
2021/05/23 08:48:02;;;;;;;5.18;2.80;;;27.50;47.30;;;;;;5154879;27;20047;-74
2021/05/23 08:50:28;;;;;;;5.53;2.67;;;27.80;46.80;;;;;;5155633;27;20022;-74
2021/05/23 08:52:59;;;;;;;8.68;2.72;;;28.20;46.50;;;;;;5155670;27;20118;-74
2021/05/23 08:55:25;;;;;;;4.10;2.72;;;28.50;45.90;;;;;;5155421;27;20551;-74
2021/05/23 08:57:54;;;;;;;3.97;2.47;;;29.10;45.40;;;;;;5155387;27;20425;-74
2021/05/23 09:00:21;;;;;;;4.75;2.33;;;29.60;44.50;;;;;;5155042;27;20027;-74
2021/05/23 09:02:58;;;;;;;2.05;1.92;;;29.80;43.70;;;;;;5155189;27;20081;-74
2021/05/23 09:05:39;;;;;;;4.65;2.15;;;29.30;43.10;;;;;;5154921;27;20051;-74
2021/05/23 09:08:11;;;;;;;2.75;2.28;;;28.70;43.40;;;;;;5155450;27;20460;-74
2021/05/23 09:10:38;;;;;;;3.17;2.58;;;28.20;43.50;;;;;;5155874;27;20365;-74
2021/05/23 09:13:04;;;;;;;3.50;2.65;;;27.90;44.00;;;;;;5136459;27;20041;-75
2021/05/23 09:15:30;;;;;;;5.55;2.85;;;27.70;44.30;;;;;;5154591;27;20026;-74
2021/05/23 09:18:03;;;;;;;4.47;2.50;;;27.50;44.90;;;;;;5153906;27;20033;-74
2021/05/23 09:20:29;;;;;;;3.75;2.47;;;27.30;45.40;;;;;;5154969;27;20023;-73
2021/05/23 09:22:55;;;;;;;6.20;3.70;;;27.80;45.40;;;;;;5154870;27;20065;-73
2021/05/23 09:25:35;;;;;;;7.78;3.45;;;28.60;45.80;;;;;;5154898;27;20463;-79
2021/05/23 09:28:03;;;;;;;5.32;2.17;;;29.80;44.10;;;;;;5155201;27;20046;-74
2021/05/23 09:30:31;;;;;;;7.22;3.17;;;31.00;43.00;;;;;;5155626;27;20065;-76
2021/05/23 09:32:58;;;;;;;5.97;2.35;;;31.60;41.60;;;;;;5154592;27;20054;-75
2021/05/23 09:35:25;;;;;;;3.30;2.20;;;32.00;41.00;;;;;;5154378;27;20035;-75
2021/05/23 09:38:01;;;;;;;2.20;2.05;;;32.50;40.20;;;;;;5154820;27;20128;-75
2021/05/23 09:40:33;;;;;;;1.80;1.65;;;32.90;39.60;;;;;;5154973;27;20367;-75
2021/05/23 09:43:00;;;;;;;3.05;1.63;;;32.70;38.90;;;;;;5155342;27;20123;-75
2021/05/23 09:45:38;;;;;;;2.17;1.98;;;32.80;38.80;;;;;;5154909;27;20031;-75
2021/05/23 09:48:06;;;;;;;2.05;1.85;;;33.70;38.40;;;;;;5155287;27;20042;-75
2021/05/23 09:50:39;;;;;;;2.13;1.80;;;34.60;37.70;;;;;;5154632;27;20034;-74
2021/05/23 09:53:25;;;;;;;1.70;1.60;;;34.90;36.30;;;;;;5155049;27;20071;-75
2021/05/23 09:56:04;;;;;;;1.48;1.45;;;34.90;36.20;;;;;;5154666;27;20148;-74
2021/05/23 09:58:56;;;;;;;1.83;1.60;;;35.60;35.80;;;;;;5158729;27;20091;-75
2021/05/23 10:01:26;;;;;;;3.53;1.65;;;36.60;35.30;;;;;;5155039;27;20586;-74
2021/05/23 10:03:55;;;;;;;2.40;1.52;;;37.30;34.30;;;;;;5157954;27;20109;-75
2021/05/23 10:06:29;;;;;;;2.30;2.05;;;38.00;34.10;;;;;;5158278;27;20098;-75
2021/05/23 10:08:56;;;;;;;2.65;2.20;;;38.70;33.30;;;;;;5158242;27;20075;-74
2021/05/23 10:11:22;;;;;;;4.00;1.60;;;39.10;32.60;;;;;;5158426;27;20110;-75
2021/05/23 10:13:48;;;;;;;1.85;1.42;;;39.00;31.80;;;;;;5158216;27;20026;-74
2021/05/23 10:16:14;;;;;;;1.85;1.45;;;38.80;31.30;;;;;;5140142;27;20160;-75
2021/05/23 10:18:40;;;;;;;2.47;1.58;;;38.40;31.00;;;;;;5158301;27;20502;-74
2021/05/23 10:21:07;;;;;;;2.60;1.20;;;37.70;31.60;;;;;;5158053;27;20402;-74
2021/05/23 10:23:37;;;;;;;1.77;1.60;;;37.60;31.90;;;;;;5157980;27;20385;-75
2021/05/23 10:26:06;;;;;;;3.58;1.48;;;37.90;32.00;;;;;;5156466;27;20087;-74
2021/05/23 10:28:42;;;;;;;2.22;1.13;;;38.50;31.50;;;;;;5140105;27;20033;-74
2021/05/23 10:31:09;;;;;;;1.40;1.00;;;39.30;30.60;;;;;;5158039;27;20022;-74
2021/05/23 10:33:35;;;;;;;2.53;1.50;;;39.40;30.10;;;;;;5139195;27;20049;-75
2021/05/23 10:36:01;;;;;;;3.42;1.10;;;39.10;29.90;;;;;;5158126;27;20055;-76
2021/05/23 10:38:27;;;;;;;2.00;1.00;;;38.40;30.00;;;;;;5157554;27;20027;-75
2021/05/23 10:41:01;;;;;;;2.78;1.27;;;38.50;30.20;;;;;;5158487;27;20062;-75
2021/05/23 10:43:30;;;;;;;2.40;1.50;;;39.10;30.30;;;;;;5157864;27;20114;-75
2021/05/23 10:46:06;;;;;;;2.85;1.50;;;39.80;30.00;;;;;;5157533;27;20075;-75
2021/05/23 10:48:32;;;;;;;3.35;1.30;;;40.60;29.60;;;;;;5157406;27;20030;-76
2021/05/23 10:50:58;;;;;;;1.85;1.30;;;41.00;29.40;;;;;;5157191;27;20023;-74
2021/05/23 10:53:34;;;;;;;2.10;1.20;;;41.40;29.20;;;;;;5138987;27;20396;-80
2021/05/23 10:56:00;;;;;;;2.58;1.40;;;41.30;28.90;;;;;;5158113;27;20046;-75
2021/05/23 10:58:28;;;;;;;4.75;1.70;;;41.40;28.70;;;;;;5158056;27;20023;-75
2021/05/23 11:00:57;;;;;;;3.03;2.75;;;41.80;28.20;;;;;;5157168;27;20083;-76
2021/05/23 11:03:30;;;;;;;1.77;1.20;;;42.10;28.00;;;;;;5138667;27;20022;-75
2021/05/23 11:06:07;;;;;;;1.33;1.20;;;42.40;27.50;;;;;;5157071;27;20106;-74
2021/05/23 11:08:35;;;;;;;1.45;0.98;;;42.60;26.90;;;;;;5137836;27;20162;-74
2021/05/23 11:11:00;;;;;;;1.58;1.45;;;42.90;27.30;;;;;;5157323;27;20030;-75
2021/05/23 11:13:26;;;;;;;2.40;1.20;;;43.10;27.50;;;;;;5157025;27;20046;-75
2021/05/23 11:15:53;;;;;;;3.88;1.55;;;42.50;27.50;;;;;;5156999;27;20022;-77
2021/05/23 11:18:21;;;;;;;2.72;1.05;;;42.00;27.70;;;;;;5156780;27;20075;-75
2021/05/23 11:21:01;;;;;;;1.15;1.05;;;42.10;27.60;;;;;;5139000;27;20366;-74
2021/05/23 11:23:28;;;;;;;1.50;0.98;;;42.50;27.50;;;;;;5156817;27;20030;-76
2021/05/23 11:26:11;;;;;;;3.70;1.48;;;42.90;27.70;;;;;;5156770;27;20032;-76
2021/05/23 11:28:38;;;;;;;0.85;0.85;;;43.40;27.70;;;;;;5156697;27;20030;-74
2021/05/23 11:31:05;;;;;;;1.77;0.90;;;42.80;27.40;;;;;;5157175;27;20035;-75
2021/05/23 11:33:31;;;;;;;2.25;1.30;;;41.30;27.40;;;;;;5156564;27;20476;-75
2021/05/23 11:35:57;;;;;;;1.02;0.93;;;39.40;27.70;;;;;;5156214;27;20023;-74
2021/05/23 11:38:37;;;;;;;1.60;1.10;;;38.00;28.30;;;;;;5156713;27;20027;-75
2021/05/23 11:41:04;;;;;;;2.88;2.25;;;36.40;28.90;;;;;;5156557;27;20023;-76
2021/05/23 11:43:30;;;;;;;1.40;1.10;;;36.10;29.50;;;;;;5154965;27;20117;-74
2021/05/23 11:46:04;;;;;;;2.10;0.90;;;36.30;29.50;;;;;;5156808;27;20109;-79
2021/05/23 11:48:32;;;;;;;1.30;1.05;;;37.20;29.50;;;;;;5155249;27;20026;-74
2021/05/23 11:50:59;;;;;;;2.60;1.20;;;38.30;29.40;;;;;;5156245;27;20030;-74
2021/05/23 11:53:35;;;;;;;2.97;1.10;;;39.30;29.00;;;;;;5156532;27;20027;-75
2021/05/23 11:56:01;;;;;;;1.90;1.67;;;40.30;28.70;;;;;;5156317;27;20027;-74
2021/05/23 11:58:27;;;;;;;2.67;1.50;;;41.00;28.20;;;;;;5156449;27;20106;-74
2021/05/23 12:00:52;;;;;;;1.40;1.25;;;41.50;28.00;;;;;;5155029;27;20373;-75
2021/05/23 12:03:18;;;;;;;2.58;1.00;;;41.90;27.60;;;;;;5155664;27;20069;-75
2021/05/23 12:05:45;;;;;;;1.35;1.20;;;42.20;27.40;;;;;;5155771;27;20019;-75
2021/05/23 12:08:22;;;;;;;1.45;1.35;;;42.50;27.80;;;;;;5155836;27;20491;-76
2021/05/23 12:11:02;;;;;;;1.63;1.40;;;42.90;27.20;;;;;;5155552;27;20022;-75
2021/05/23 12:13:44;;;;;;;1.08;1.05;;;43.20;27.00;;;;;;5155719;27;20039;-74
2021/05/23 12:16:23;;;;;;;4.18;1.52;;;43.40;26.90;;;;;;5155791;27;20023;-74
2021/05/23 12:18:54;;;;;;;1.58;1.23;;;43.60;26.80;;;;;;5155806;27;20038;-75
2021/05/23 12:21:22;;;;;;;3.05;1.45;;;43.70;26.80;;;;;;5155310;27;20106;-75
2021/05/23 12:23:49;;;;;;;1.13;1.02;;;43.80;26.70;;;;;;5136954;27;20140;-77
2021/05/23 12:26:18;;;;;;;2.53;0.98;;;43.80;26.50;;;;;;5155605;27;20030;-76
2021/05/23 12:28:47;;;;;;;1.50;1.38;;;44.00;26.40;;;;;;5156331;27;20033;-75
2021/05/23 12:31:15;;;;;;;1.35;1.30;;;43.40;26.20;;;;;;5155693;27;20030;-75
2021/05/23 12:33:51;;;;;;;4.05;1.50;;;42.20;26.20;;;;;;5155279;27;20041;-76
2021/05/23 12:36:18;;;;;;;2.22;1.50;;;41.10;26.30;;;;;;5155532;27;20026;-75
2021/05/23 12:38:57;;;;;;;1.35;1.33;;;39.70;26.40;;;;;;5155646;27;20050;-74
2021/05/23 12:41:45;;;;;;;1.35;1.25;;;39.50;27.00;;;;;;5155267;27;20030;-77
2021/05/23 12:44:20;;;;;;;1.58;1.08;;;40.30;27.00;;;;;;5155584;27;20027;-75
2021/05/23 12:46:46;;;;;;;1.50;1.40;;;40.90;26.60;;;;;;5154918;27;20383;-75
2021/05/23 12:49:34;;;;;;;1.25;0.98;;;41.50;26.60;;;;;;5154126;27;20027;-76